Time;durP1;ratioP1;P1;durP2;ratioP2;P2;SDS_P1;SDS_P2;PMS_P1;PMS_P2;Temp;Humidity;BMP_temperature;BMP_pressure;BME280_temperature;BME280_humidity;BME280_pressure;Samples;Min_cycle;Max_cycle;Signal;HPM_P1;HPM_P2
2021/12/16 00:07:00;;;;;;;;;;;21.20;46.20;;;;;;6229702;28;19928;-39
2021/12/16 00:10:14;;;;;;;;;;;21.90;46.50;;;;;;6238168;28;19968;-39
2021/12/16 00:20:20;;;;;;;;;;;21.20;46.20;;;;;;6257069;28;19928;-38
2021/12/16 00:33:13;;;;;;;;;;;21.30;46.20;;;;;;6239483;28;19932;-38
2021/12/16 00:36:14;;;;;;;;;;;21.50;46.20;;;;;;6224871;28;20528;-38
2021/12/16 00:39:20;;;;;;;;;;;21.10;46.10;;;;;;6237032;28;20788;-40
2021/12/16 00:42:33;;;;;;;;;;;21.70;46.30;;;;;;6235236;28;19928;-38
2021/12/16 00:45:41;;;;;;;;;;;21.30;46.20;;;;;;6234046;28;19959;-38
2021/12/16 00:49:05;;;;;;;;;;;20.90;46.00;;;;;;6204691;28;19963;-39
2021/12/16 00:55:34;;;;;;;;;;;21.50;45.90;;;;;;6216750;28;19928;-38
2021/12/16 00:58:41;;;;;;;;;;;21.50;46.50;;;;;;6233459;28;19928;-38
2021/12/16 01:01:51;;;;;;;;;;;21.00;46.10;;;;;;6213757;28;19928;-39
2021/12/16 01:34:31;;;;;;;;;;;21.30;46.30;;;;;;6238543;28;19928;-38
2021/12/16 01:38:07;;;;;;;;;;;21.00;46.20;;;;;;6238064;28;21396;-39
2021/12/16 01:47:54;;;;;;;;;;;21.60;46.50;;;;;;6222483;28;19932;-39
2021/12/16 01:51:01;;;;;;;;;;;21.30;46.30;;;;;;6236465;28;19964;-39
2021/12/16 01:57:24;;;;;;;;;;;21.00;46.10;;;;;;6244338;28;20782;-39
2021/12/16 02:00:30;;;;;;;;;;;20.80;46.00;;;;;;6240570;28;19928;-39
2021/12/16 02:03:42;;;;;;;;;;;21.30;46.30;;;;;;6241469;28;19994;-38
2021/12/16 02:06:59;;;;;;;;;;;20.60;45.30;;;;;;6240803;28;19928;-39
2021/12/16 02:10:04;;;;;;;;;;;21.00;46.10;;;;;;6245955;28;20642;-38
2021/12/16 02:13:19;;;;;;;;;;;20.70;46.00;;;;;;6245611;28;20034;-38
2021/12/16 02:29:39;;;;;;;;;;;21.00;46.10;;;;;;6225280;28;20018;-39
2021/12/16 02:32:50;;;;;;;;;;;20.80;46.00;;;;;;6233005;28;19936;-38
2021/12/16 02:36:01;;;;;;;;;;;21.00;46.00;;;;;;6243266;28;19982;-39
2021/12/16 02:39:06;;;;;;;;;;;21.40;45.80;;;;;;6240125;28;19928;-39
2021/12/16 02:42:13;;;;;;;;;;;20.70;46.00;;;;;;6245798;28;20002;-39
2021/12/16 02:48:30;;;;;;;;;;;21.30;46.40;;;;;;6234798;28;19924;-38
2021/12/16 02:51:31;;;;;;;;;;;21.30;46.30;;;;;;6248573;28;20025;-39
2021/12/16 02:54:33;;;;;;;;;;;21.30;46.10;;;;;;6245181;28;19927;-38
2021/12/16 02:57:43;;;;;;;;;;;20.80;46.10;;;;;;6250208;28;19974;-38
2021/12/16 03:00:48;;;;;;;;;;;20.90;46.00;;;;;;6237555;28;20747;-38
2021/12/16 03:03:49;;;;;;;;;;;20.80;46.00;;;;;;6252555;28;20639;-38
2021/12/16 03:06:52;;;;;;;;;;;20.90;46.20;;;;;;6217768;28;20590;-38
2021/12/16 03:13:08;;;;;;;;;;;21.10;46.30;;;;;;6234155;28;19998;-39
2021/12/16 03:16:20;;;;;;;;;;;20.90;46.00;;;;;;6222175;28;20189;-38
2021/12/16 03:19:28;;;;;;;;;;;20.90;46.30;;;;;;6241246;28;19928;-38
2021/12/16 03:22:52;;;;;;;;;;;21.70;46.60;;;;;;6232720;28;20329;-38
2021/12/16 03:26:19;;;;;;;;;;;20.80;46.10;;;;;;6236651;28;19978;-38
2021/12/16 03:29:41;;;;;;;;;;;20.80;46.00;;;;;;6226938;28;19924;-38
2021/12/16 03:36:28;;;;;;;;;;;20.90;46.30;;;;;;6249667;28;20035;-38
2021/12/16 03:39:31;;;;;;;;;;;21.10;46.20;;;;;;6235290;28;19928;-38
2021/12/16 03:42:36;;;;;;;;;;;20.60;45.90;;;;;;6217645;28;19931;-38
2021/12/16 03:49:05;;;;;;;;;;;20.70;46.10;;;;;;6234213;28;19961;-38
2021/12/16 03:52:09;;;;;;;;;;;20.70;46.00;;;;;;6233703;28;19998;-39
2021/12/16 03:55:16;;;;;;;;;;;21.20;45.90;;;;;;6219252;28;20035;-38
2021/12/16 03:58:19;;;;;;;;;;;21.00;46.80;;;;;;6236056;28;19928;-38
2021/12/16 04:01:27;;;;;;;;;;;20.70;46.10;;;;;;6234720;28;20612;-38
2021/12/16 04:04:28;;;;;;;;;;;21.20;46.30;;;;;;6235068;28;20175;-38
2021/12/16 04:07:32;;;;;;;;;;;20.70;46.20;;;;;;6230362;28;20238;-38
2021/12/16 04:11:02;;;;;;;;;;;20.90;46.20;;;;;;6227462;28;19991;-38
2021/12/16 04:14:15;;;;;;;;;;;20.80;46.00;;;;;;6240569;28;20606;-38
2021/12/16 04:17:21;;;;;;;;;;;21.20;46.40;;;;;;6246490;28;20618;-38
2021/12/16 04:20:29;;;;;;;;;;;20.70;46.00;;;;;;6241814;28;20762;-39
2021/12/16 04:23:31;;;;;;;;;;;21.00;46.30;;;;;;6242589;28;20752;-38
2021/12/16 04:26:34;;;;;;;;;;;21.20;46.40;;;;;;6237834;28;19924;-38
2021/12/16 04:29:37;;;;;;;;;;;20.70;46.00;;;;;;6217338;28;19927;-38
2021/12/16 04:32:40;;;;;;;;;;;20.60;46.10;;;;;;6238542;28;20824;-38
2021/12/16 04:35:41;;;;;;;;;;;21.00;46.30;;;;;;6242316;28;19928;-38
2021/12/16 04:38:44;;;;;;;;;;;20.70;46.20;;;;;;6242334;28;19928;-38
2021/12/16 04:41:45;;;;;;;;;;;21.00;46.20;;;;;;6244815;28;19958;-39
2021/12/16 04:44:47;;;;;;;;;;;20.70;46.10;;;;;;6221344;28;19951;-38
2021/12/16 04:47:50;;;;;;;;;;;20.90;46.20;;;;;;6243418;28;20043;-38
2021/12/16 04:50:51;;;;;;;;;;;20.70;46.20;;;;;;6247904;28;19939;-39
2021/12/16 04:53:55;;;;;;;;;;;20.70;46.10;;;;;;6241810;28;19925;-38
2021/12/16 04:56:58;;;;;;;;;;;21.10;46.30;;;;;;6245131;28;19940;-39
2021/12/16 05:00:00;;;;;;;;;;;20.80;46.00;;;;;;6222034;28;19928;-38
2021/12/16 05:03:02;;;;;;;;;;;20.60;45.90;;;;;;6239688;28;19978;-38
2021/12/16 05:06:13;;;;;;;;;;;21.40;46.50;;;;;;6244583;28;19967;-39
2021/12/16 05:09:38;;;;;;;;;;;20.80;46.20;;;;;;6241934;28;19928;-38
2021/12/16 05:12:39;;;;;;;;;;;20.60;46.00;;;;;;6257865;28;19936;-38
2021/12/16 05:15:43;;;;;;;;;;;20.70;46.00;;;;;;6235737;28;20378;-38
2021/12/16 05:18:46;;;;;;;;;;;21.10;46.40;;;;;;6209973;28;20310;-39
2021/12/16 05:21:54;;;;;;;;;;;20.60;46.10;;;;;;6228184;28;20301;-38
2021/12/16 05:24:59;;;;;;;;;;;21.10;46.40;;;;;;6233632;28;20514;-38
2021/12/16 05:28:01;;;;;;;;;;;21.50;46.50;;;;;;6234010;28;19924;-38
2021/12/16 05:31:04;;;;;;;;;;;21.30;46.30;;;;;;6213162;28;20570;-38
2021/12/16 05:34:12;;;;;;;;;;;20.80;46.30;;;;;;6216560;28;20816;-38
2021/12/16 05:37:14;;;;;;;;;;;21.10;46.40;;;;;;6246927;28;20838;-39
2021/12/16 05:40:19;;;;;;;;;;;21.10;45.80;;;;;;6233745;28;20153;-38
2021/12/16 05:43:29;;;;;;;;;;;20.60;46.10;;;;;;6217846;28;20287;-38
2021/12/16 05:46:32;;;;;;;;;;;20.90;46.20;;;;;;6220985;28;19924;-39
2021/12/16 05:49:34;;;;;;;;;;;21.30;46.60;;;;;;6229847;28;20026;-38
2021/12/16 05:52:35;;;;;;;;;;;20.60;46.10;;;;;;6218081;28;19929;-38
2021/12/16 05:55:39;;;;;;;;;;;21.10;46.50;;;;;;6239630;28;20030;-39
2021/12/16 05:58:49;;;;;;;;;;;21.40;46.50;;;;;;6248049;28;19935;-39
2021/12/16 06:01:51;;;;;;;;;;;21.00;46.50;;;;;;6234236;28;19931;-38
2021/12/16 06:05:00;;;;;;;;;;;20.60;46.30;;;;;;6240638;28;19920;-38
2021/12/16 06:08:01;;;;;;;;;;;20.40;46.10;;;;;;6236959;28;19999;-39
2021/12/16 06:14:23;;;;;;;;;;;20.60;46.20;;;;;;6240107;28;20844;-39
2021/12/16 06:27:12;;;;;;;;;;;20.60;46.20;;;;;;6225792;28;20054;-39
2021/12/16 06:30:15;;;;;;;;;;;21.10;46.40;;;;;;6229555;28;20417;-38
2021/12/16 06:33:19;;;;;;;;;;;20.70;46.20;;;;;;6226368;28;19929;-38
2021/12/16 06:36:20;;;;;;;;;;;20.60;46.20;;;;;;6237308;28;20133;-39
2021/12/16 06:39:21;;;;;;;;;;;20.60;46.20;;;;;;6240182;28;19928;-38
2021/12/16 06:42:40;;;;;;;;;;;20.60;46.30;;;;;;6244019;28;20840;-38
2021/12/16 06:45:46;;;;;;;;;;;20.90;46.30;;;;;;6210707;28;20201;-40
2021/12/16 06:48:56;;;;;;;;;;;20.80;46.20;;;;;;6216486;28;20023;-39
2021/12/16 06:52:00;;;;;;;;;;;21.00;46.30;;;;;;6236125;28;20766;-39
2021/12/16 06:55:11;;;;;;;;;;;20.70;46.10;;;;;;6238014;28;19928;-38
2021/12/16 06:58:20;;;;;;;;;;;21.00;46.00;;;;;;6232181;28;21221;-38
2021/12/16 07:01:36;;;;;;;;;;;21.30;46.20;;;;;;6236057;28;20864;-38
2021/12/16 07:04:38;;;;;;;;;;;21.00;45.90;;;;;;6233532;28;19934;-39
2021/12/16 07:07:39;;;;;;;;;;;20.80;45.80;;;;;;6229195;28;19928;-39
2021/12/16 07:10:45;;;;;;;;;;;20.90;45.90;;;;;;6230362;28;19928;-39
2021/12/16 07:13:56;;;;;;;;;;;20.90;45.90;;;;;;6216426;28;20692;-39
2021/12/16 07:16:59;;;;;;;;;;;21.30;45.80;;;;;;6216389;28;19937;-39
2021/12/16 07:20:01;;;;;;;;;;;20.80;45.70;;;;;;6228903;28;19928;-39
2021/12/16 07:23:04;;;;;;;;;;;21.00;45.80;;;;;;6188121;28;19928;-40
2021/12/16 07:26:05;;;;;;;;;;;20.90;45.60;;;;;;6196095;28;20700;-39
2021/12/16 07:29:11;;;;;;;;;;;20.90;45.60;;;;;;6176425;28;19928;-38
2021/12/16 07:32:13;;;;;;;;;;;21.00;45.50;;;;;;6170769;28;19928;-39
2021/12/16 07:35:16;;;;;;;;;;;21.40;46.30;;;;;;6203081;28;20006;-39
2021/12/16 07:38:18;;;;;;;;;;;21.10;45.60;;;;;;6198794;28;19935;-38
2021/12/16 07:41:24;;;;;;;;;;;21.10;45.30;;;;;;6164319;28;20014;-38
2021/12/16 07:44:26;;;;;;;;;;;21.10;45.50;;;;;;6149451;28;19929;-38
2021/12/16 07:47:27;;;;;;;;;;;22.10;46.10;;;;;;6151316;28;19935;-38
2021/12/16 07:50:29;;;;;;;;;;;22.10;46.10;;;;;;6164628;28;19990;-38
2021/12/16 07:53:31;;;;;;;;;;;21.10;45.20;;;;;;6147920;28;20021;-39
2021/12/16 07:56:33;;;;;;;;;;;21.20;45.10;;;;;;6138573;28;20775;-40
2021/12/16 07:59:36;;;;;;;;;;;21.70;45.60;;;;;;6119260;28;19928;-38
2021/12/16 08:02:38;;;;;;;;;;;21.10;45.20;;;;;;6100326;28;19935;-38
2021/12/16 08:05:47;;;;;;;;;;;21.60;45.40;;;;;;6100884;28;20189;-38
2021/12/16 08:08:49;;;;;;;;;;;21.70;45.50;;;;;;6042063;28;34903;-39
2021/12/16 08:11:51;;;;;;;;;;;21.60;45.40;;;;;;6050139;28;34849;-45
2021/12/16 08:14:52;;;;;;;;;;;21.80;45.40;;;;;;6053939;28;28620;-43
2021/12/16 08:17:55;;;;;;;;;;;21.70;45.50;;;;;;6068902;28;37719;-41
2021/12/16 08:20:58;;;;;;;;;;;21.40;45.30;;;;;;6074442;28;21911;-42
2021/12/16 08:24:00;;;;;;;;;;;21.70;45.30;;;;;;6055335;28;20059;-43
2021/12/16 08:27:01;;;;;;;;;;;22.00;45.40;;;;;;6053914;28;46471;-41
2021/12/16 08:30:06;;;;;;;;;;;21.80;45.20;;;;;;6037882;28;19928;-41
2021/12/16 08:33:10;;;;;;;;;;;21.80;45.30;;;;;;6064577;28;19970;-42
2021/12/16 08:36:13;;;;;;;;;;;21.90;45.30;;;;;;6052506;28;19935;-39
2021/12/16 08:39:15;;;;;;;;;;;22.00;45.00;;;;;;6063952;28;22343;-39
2021/12/16 08:42:17;;;;;;;;;;;21.90;45.00;;;;;;6041638;28;40084;-38
2021/12/16 08:45:19;;;;;;;;;;;22.20;44.70;;;;;;6047040;28;21347;-38
2021/12/16 08:48:21;;;;;;;;;;;22.00;45.00;;;;;;6044259;28;19928;-38
2021/12/16 08:51:25;;;;;;;;;;;21.30;44.70;;;;;;6059615;28;19936;-37
2021/12/16 08:54:26;;;;;;;;;;;21.90;44.90;;;;;;6053080;28;20704;-37
2021/12/16 08:57:28;;;;;;;;;;;21.70;44.60;;;;;;6037124;28;19932;-37
2021/12/16 09:00:31;;;;;;;;;;;22.10;44.90;;;;;;6021580;28;19932;-37
2021/12/16 09:03:34;;;;;;;;;;;21.90;43.90;;;;;;6006005;28;19967;-38
2021/12/16 09:06:37;;;;;;;;;;;21.70;44.80;;;;;;6008300;28;19928;-40
2021/12/16 09:09:39;;;;;;;;;;;22.40;44.90;;;;;;6065159;28;19936;-38
2021/12/16 09:15:58;;;;;;;;;;;21.60;44.60;;;;;;6050826;28;19933;-38
2021/12/16 09:19:00;;;;;;;;;;;22.30;45.00;;;;;;6053291;28;33687;-40
2021/12/16 09:22:02;;;;;;;;;;;22.40;44.80;;;;;;6058646;28;19928;-40
2021/12/16 09:25:03;;;;;;;;;;;21.80;44.60;;;;;;6071779;28;19962;-39
2021/12/16 09:28:05;;;;;;;;;;;21.90;44.60;;;;;;6070689;28;19935;-40
2021/12/16 09:31:10;;;;;;;;;;;22.10;44.80;;;;;;6055420;28;20098;-43
2021/12/16 09:34:12;;;;;;;;;;;22.40;44.70;;;;;;6071491;28;19928;-41
2021/12/16 09:37:14;;;;;;;;;;;22.40;44.80;;;;;;6049360;28;20983;-39
2021/12/16 09:40:16;;;;;;;;;;;21.90;44.30;;;;;;6011215;28;19936;-39
2021/12/16 09:43:19;;;;;;;;;;;22.50;44.80;;;;;;6062059;28;19928;-39
2021/12/16 09:46:26;;;;;;;;;;;22.50;44.20;;;;;;6061668;28;19928;-41
2021/12/16 09:49:28;;;;;;;;;;;21.80;43.90;;;;;;6042872;28;21796;-42
2021/12/16 09:52:30;;;;;;;;;;;22.00;44.00;;;;;;6020777;28;19952;-41
2021/12/16 09:55:33;;;;;;;;;;;22.70;44.40;;;;;;6037572;28;22968;-38
2021/12/16 09:58:38;;;;;;;;;;;22.80;44.30;;;;;;6061028;28;19932;-40
2021/12/16 10:01:40;;;;;;;;;;;22.80;44.40;;;;;;6037299;28;19928;-41
2021/12/16 10:04:43;;;;;;;;;;;22.30;44.00;;;;;;6021452;28;19929;-41
2021/12/16 10:07:45;;;;;;;;;;;22.40;44.00;;;;;;6055441;28;20658;-40
2021/12/16 10:10:46;;;;;;;;;;;22.60;43.90;;;;;;6025712;28;21118;-39
2021/12/16 10:14:01;;;;;;;;;;;22.70;43.90;;;;;;6023182;28;19928;-43
2021/12/16 10:20:19;;;;;;;;;;;22.80;44.00;;;;;;6039648;28;19971;-40
2021/12/16 10:23:26;;;;;;;;;;;22.80;44.00;;;;;;6044264;28;21240;-40
2021/12/16 10:26:28;;;;;;;;;;;23.10;43.90;;;;;;6064538;28;19993;-40
2021/12/16 10:29:33;;;;;;;;;;;22.30;43.60;;;;;;6057258;28;19928;-39
2021/12/16 10:32:40;;;;;;;;;;;23.00;43.60;;;;;;6053883;28;19928;-41
2021/12/16 10:35:47;;;;;;;;;;;23.00;43.50;;;;;;6057560;28;22313;-42
2021/12/16 10:38:50;;;;;;;;;;;23.00;43.80;;;;;;6042862;28;20299;-39
2021/12/16 10:41:53;;;;;;;;;;;22.70;43.70;;;;;;6051239;28;22028;-40
2021/12/16 10:44:55;;;;;;;;;;;22.90;43.70;;;;;;6087109;28;19935;-40
2021/12/16 10:48:07;;;;;;;;;;;23.10;43.70;;;;;;6079132;28;19929;-42
2021/12/16 10:51:11;;;;;;;;;;;22.60;43.40;;;;;;6055967;28;21757;-39
2021/12/16 10:54:15;;;;;;;;;;;22.70;43.50;;;;;;6034449;28;20009;-40
2021/12/16 10:57:18;;;;;;;;;;;22.90;43.60;;;;;;6056235;28;19955;-41
2021/12/16 11:00:20;;;;;;;;;;;22.80;43.50;;;;;;6022322;28;19990;-40
2021/12/16 11:03:28;;;;;;;;;;;22.50;43.40;;;;;;6045740;28;19928;-39
2021/12/16 11:06:31;;;;;;;;;;;22.90;43.30;;;;;;6068247;28;19974;-39
2021/12/16 11:09:35;;;;;;;;;;;23.30;43.50;;;;;;6065946;28;19934;-40
2021/12/16 11:12:39;;;;;;;;;;;23.40;43.40;;;;;;6038618;28;20171;-39
2021/12/16 11:15:42;;;;;;;;;;;23.30;43.40;;;;;;6077687;28;19936;-39
2021/12/16 11:18:46;;;;;;;;;;;22.80;43.30;;;;;;6073873;28;34476;-40
2021/12/16 11:21:47;;;;;;;;;;;23.20;43.50;;;;;;6094370;28;20078;-40
2021/12/16 11:24:50;;;;;;;;;;;23.50;43.90;;;;;;6111363;28;22218;-39
2021/12/16 11:27:54;;;;;;;;;;;22.80;43.50;;;;;;6114743;28;20018;-40
2021/12/16 11:30:56;;;;;;;;;;;22.80;43.30;;;;;;6100003;28;19933;-39
2021/12/16 11:33:59;;;;;;;;;;;23.20;43.40;;;;;;6072982;28;19975;-39
2021/12/16 11:37:00;;;;;;;;;;;22.70;43.50;;;;;;6110248;28;20050;-39
2021/12/16 11:40:03;;;;;;;;;;;23.10;43.70;;;;;;6103569;28;19932;-40
2021/12/16 11:43:05;;;;;;;;;;;23.40;43.80;;;;;;6133771;28;19986;-39
2021/12/16 11:46:11;;;;;;;;;;;23.10;43.70;;;;;;6120498;28;20328;-39
2021/12/16 11:49:15;;;;;;;;;;;22.80;43.40;;;;;;6164638;28;19929;-41
2021/12/16 11:52:19;;;;;;;;;;;22.80;43.30;;;;;;6121156;28;19928;-40
2021/12/16 11:55:21;;;;;;;;;;;23.10;43.40;;;;;;6137574;28;19934;-40
2021/12/16 11:58:28;;;;;;;;;;;23.00;43.90;;;;;;6147649;28;19935;-39
2021/12/16 12:01:30;;;;;;;;;;;22.70;43.60;;;;;;6146201;28;19928;-38
2021/12/16 12:04:33;;;;;;;;;;;23.10;43.40;;;;;;6121682;28;19928;-39
2021/12/16 12:07:39;;;;;;;;;;;23.50;43.90;;;;;;6149091;28;19932;-40
2021/12/16 12:10:46;;;;;;;;;;;22.80;43.40;;;;;;6136919;28;20018;-40
2021/12/16 12:13:48;;;;;;;;;;;23.10;43.50;;;;;;6097994;28;19979;-38
2021/12/16 12:16:52;;;;;;;;;;;22.90;43.50;;;;;;6154821;28;34271;-39
2021/12/16 12:19:57;;;;;;;;;;;23.30;43.60;;;;;;6188598;28;19935;-40
2021/12/16 12:23:00;;;;;;;;;;;23.30;43.70;;;;;;6142854;28;19951;-39
2021/12/16 12:26:02;;;;;;;;;;;22.70;43.40;;;;;;6122830;28;19932;-40
2021/12/16 12:29:05;;;;;;;;;;;22.90;43.40;;;;;;6132243;28;20142;-38
2021/12/16 12:32:08;;;;;;;;;;;22.90;43.60;;;;;;6096608;28;20571;-38
2021/12/16 12:35:13;;;;;;;;;;;23.00;43.60;;;;;;6105585;28;20145;-40
2021/12/16 12:38:15;;;;;;;;;;;23.10;43.60;;;;;;6114562;28;19928;-38
2021/12/16 12:41:17;;;;;;;;;;;23.10;43.70;;;;;;6079716;28;21195;-40
2021/12/16 12:44:18;;;;;;;;;;;22.70;43.50;;;;;;6109978;28;19929;-38
2021/12/16 12:47:21;;;;;;;;;;;22.80;43.40;;;;;;6124527;28;19940;-39
2021/12/16 12:50:24;;;;;;;;;;;22.80;43.50;;;;;;6126203;28;19950;-39
2021/12/16 12:53:31;;;;;;;;;;;23.10;43.70;;;;;;6087341;28;20986;-38
2021/12/16 12:56:34;;;;;;;;;;;23.10;43.00;;;;;;6072005;28;20101;-39
2021/12/16 12:59:36;;;;;;;;;;;23.00;43.40;;;;;;6047404;28;21105;-38
2021/12/16 13:02:39;;;;;;;;;;;23.10;43.60;;;;;;5992753;28;19929;-39
2021/12/16 13:05:41;;;;;;;;;;;22.70;43.50;;;;;;6049982;28;19935;-39
2021/12/16 13:08:43;;;;;;;;;;;23.40;43.80;;;;;;6051025;28;19928;-39
2021/12/16 13:11:45;;;;;;;;;;;23.10;43.70;;;;;;6040332;28;19935;-38
2021/12/16 13:14:50;;;;;;;;;;;22.60;43.40;;;;;;6078681;28;19928;-38
2021/12/16 13:24:55;;;;;;;;;;;22.90;43.60;;;;;;6041873;28;19932;-39
2021/12/16 13:28:00;;;;;;;;;;;22.60;42.90;;;;;;6058847;28;19928;-39
2021/12/16 13:31:06;;;;;;;;;;;23.20;43.50;;;;;;6033708;28;20051;-39
2021/12/16 13:34:25;;;;;;;;;;;23.20;43.50;;;;;;6008892;28;20528;-41
2021/12/16 13:37:31;;;;;;;;;;;22.90;43.20;;;;;;6030832;28;19935;-36
2021/12/16 13:40:34;;;;;;;;;;;22.90;43.20;;;;;;6061851;28;19928;-37
2021/12/16 13:43:37;;;;;;;;;;;23.40;43.30;;;;;;6018843;28;19935;-38
2021/12/16 13:46:57;;;;;;;;;;;23.50;43.10;;;;;;6028747;28;19976;-39
2021/12/16 14:03:23;;;;;;;;;;;23.70;43.20;;;;;;6024377;28;19935;-36
2021/12/16 14:06:38;;;;;;;;;;;23.10;42.90;;;;;;5994359;28;19935;-36
2021/12/16 14:09:51;;;;;;;;;;;23.30;42.90;;;;;;5970822;28;19929;-38
2021/12/16 14:16:34;;;;;;;;;;;23.90;43.20;;;;;;6035135;28;20780;-36
2021/12/16 14:23:03;;;;;;;;;;;23.80;43.40;;;;;;6044020;28;19936;-40
2021/12/16 14:26:16;;;;;;;;;;;23.70;43.40;;;;;;6070743;28;22700;-40
2021/12/16 14:36:25;;;;;;;;;;;23.60;43.20;;;;;;6037793;28;19999;-38
2021/12/16 14:42:46;;;;;;;;;;;23.70;43.10;;;;;;6027664;28;20002;-38
2021/12/16 14:45:56;;;;;;;;;;;23.40;43.10;;;;;;6067732;28;19928;-37
2021/12/16 14:48:59;;;;;;;;;;;23.60;42.90;;;;;;6048814;28;21257;-40
2021/12/16 14:52:00;;;;;;;;;;;23.80;43.00;;;;;;6021384;28;19928;-39
2021/12/16 14:55:04;;;;;;;;;;;23.20;42.70;;;;;;6045030;28;19936;-40
2021/12/16 14:58:05;;;;;;;;;;;23.60;42.90;;;;;;6027491;28;19928;-38
2021/12/16 15:01:11;;;;;;;;;;;23.60;42.80;;;;;;6065547;28;19928;-42
2021/12/16 15:04:16;;;;;;;;;;;23.80;43.00;;;;;;5984846;28;19935;-37
2021/12/16 15:07:19;;;;;;;;;;;23.50;42.80;;;;;;6044758;28;19928;-39
2021/12/16 15:10:22;;;;;;;;;;;23.70;42.70;;;;;;6010960;28;21547;-39
2021/12/16 15:13:30;;;;;;;;;;;23.90;42.70;;;;;;6025054;28;19935;-39
2021/12/16 15:16:46;;;;;;;;;;;23.40;42.70;;;;;;6002193;28;23917;-38
2021/12/16 15:39:45;;;;;;;;;;;23.80;43.00;;;;;;5991077;28;21735;-37
2021/12/16 15:42:50;;;;;;;;;;;23.50;42.70;;;;;;6009973;28;19935;-38
2021/12/16 15:45:54;;;;;;;;;;;23.70;43.00;;;;;;6043186;28;19929;-37
2021/12/16 15:48:56;;;;;;;;;;;24.00;42.90;;;;;;6027058;28;20294;-39
2021/12/16 15:52:00;;;;;;;;;;;23.80;42.70;;;;;;6046723;28;19935;-39
2021/12/16 15:55:02;;;;;;;;;;;24.00;43.00;;;;;;6054689;28;19928;-39
2021/12/16 15:58:06;;;;;;;;;;;24.00;42.90;;;;;;5985498;28;19986;-39
2021/12/16 16:01:11;;;;;;;;;;;23.80;42.70;;;;;;6014102;28;20042;-38
2021/12/16 16:04:14;;;;;;;;;;;23.70;42.60;;;;;;6009787;28;19928;-38
2021/12/16 16:07:18;;;;;;;;;;;23.90;42.50;;;;;;6055620;28;19928;-41
2021/12/16 16:10:20;;;;;;;;;;;23.90;42.60;;;;;;6087112;28;19958;-37
2021/12/16 16:13:22;;;;;;;;;;;24.70;43.10;;;;;;6085009;28;19928;-38
2021/12/16 16:16:29;;;;;;;;;;;23.90;42.70;;;;;;6069347;28;35675;-39
2021/12/16 16:19:31;;;;;;;;;;;23.50;42.30;;;;;;6031486;28;19929;-38
2021/12/16 16:22:33;;;;;;;;;;;24.00;42.50;;;;;;6058675;28;19928;-38
2021/12/16 16:25:35;;;;;;;;;;;23.80;42.60;;;;;;6091292;28;20258;-38
2021/12/16 16:28:38;;;;;;;;;;;23.90;42.40;;;;;;6074135;28;19928;-39
2021/12/16 16:31:41;;;;;;;;;;;23.30;42.20;;;;;;6001040;28;19928;-39
2021/12/16 16:34:44;;;;;;;;;;;23.90;42.70;;;;;;6057175;28;20233;-41
2021/12/16 16:37:46;;;;;;;;;;;24.00;42.70;;;;;;6070693;28;20518;-39
2021/12/16 16:40:50;;;;;;;;;;;23.70;42.60;;;;;;6072383;28;19935;-37
2021/12/16 16:43:52;;;;;;;;;;;23.40;42.40;;;;;;6069449;28;19964;-39
2021/12/16 16:46:58;;;;;;;;;;;23.50;42.50;;;;;;6101084;28;19935;-40
2021/12/16 16:50:00;;;;;;;;;;;23.40;42.60;;;;;;6083207;28;19928;-38
2021/12/16 16:53:02;;;;;;;;;;;23.90;42.70;;;;;;6055129;28;19932;-38
2021/12/16 16:56:04;;;;;;;;;;;23.70;42.30;;;;;;6141792;28;20061;-40
2021/12/16 16:59:06;;;;;;;;;;;24.00;42.70;;;;;;6115785;28;19928;-39
2021/12/16 17:02:17;;;;;;;;;;;23.60;42.50;;;;;;6104653;28;20018;-39
2021/12/16 17:05:20;;;;;;;;;;;24.00;42.80;;;;;;6093022;28;19929;-39
2021/12/16 17:08:24;;;;;;;;;;;23.60;42.50;;;;;;6089529;28;19939;-39
2021/12/16 17:11:26;;;;;;;;;;;23.90;42.70;;;;;;6137098;28;21010;-40
2021/12/16 17:14:36;;;;;;;;;;;24.10;42.70;;;;;;6122870;28;19938;-39
2021/12/16 17:17:41;;;;;;;;;;;23.90;42.80;;;;;;6121813;28;30750;-38
2021/12/16 17:20:42;;;;;;;;;;;23.70;42.60;;;;;;6160300;28;19935;-38
2021/12/16 17:23:49;;;;;;;;;;;23.70;42.60;;;;;;6172109;28;19928;-39
2021/12/16 17:26:53;;;;;;;;;;;23.60;42.50;;;;;;6147925;28;19928;-39
2021/12/16 17:29:56;;;;;;;;;;;23.70;42.60;;;;;;6159007;28;19934;-39
2021/12/16 17:32:58;;;;;;;;;;;24.00;42.80;;;;;;6154441;28;19936;-39
2021/12/16 17:36:00;;;;;;;;;;;23.90;42.90;;;;;;6180101;28;19975;-39
2021/12/16 17:39:10;;;;;;;;;;;24.00;42.80;;;;;;6180655;28;19974;-38
2021/12/16 17:42:14;;;;;;;;;;;23.70;43.00;;;;;;6180843;28;19927;-39
2021/12/16 17:45:17;;;;;;;;;;;23.50;42.80;;;;;;6197155;28;19928;-40
2021/12/16 17:48:20;;;;;;;;;;;23.40;42.90;;;;;;6202694;28;19967;-38
2021/12/16 17:51:29;;;;;;;;;;;23.70;43.10;;;;;;6210890;28;19935;-39
2021/12/16 17:54:38;;;;;;;;;;;23.60;43.00;;;;;;6221962;28;20051;-38
2021/12/16 17:57:41;;;;;;;;;;;23.30;43.10;;;;;;6197994;28;20725;-38
2021/12/16 18:00:46;;;;;;;;;;;23.30;43.00;;;;;;6213092;28;20019;-39
2021/12/16 18:03:49;;;;;;;;;;;23.60;43.00;;;;;;6208629;28;19963;-38
2021/12/16 18:06:54;;;;;;;;;;;23.20;43.10;;;;;;6192512;28;19929;-39
2021/12/16 18:09:58;;;;;;;;;;;23.60;43.40;;;;;;6207640;28;19929;-38
2021/12/16 18:13:00;;;;;;;;;;;23.10;43.10;;;;;;6208863;28;21243;-38
2021/12/16 18:16:01;;;;;;;;;;;23.00;43.10;;;;;;6198295;28;20853;-37
2021/12/16 18:19:07;;;;;;;;;;;22.80;43.00;;;;;;6213354;28;19928;-38
2021/12/16 18:22:13;;;;;;;;;;;22.90;43.10;;;;;;6217394;28;21779;-38
2021/12/16 18:25:17;;;;;;;;;;;22.90;43.30;;;;;;6221766;28;19928;-38
2021/12/16 18:28:22;;;;;;;;;;;23.10;43.60;;;;;;6224019;28;19966;-39
2021/12/16 18:31:28;;;;;;;;;;;22.90;43.50;;;;;;6215076;28;20993;-39
2021/12/16 18:34:33;;;;;;;;;;;22.90;43.50;;;;;;6196433;28;20013;-39
2021/12/16 18:37:35;;;;;;;;;;;23.00;43.70;;;;;;6224693;28;21187;-38
2021/12/16 18:40:39;;;;;;;;;;;23.20;43.80;;;;;;6226626;28;20029;-38
2021/12/16 18:43:41;;;;;;;;;;;23.00;43.80;;;;;;6210587;28;19971;-38
2021/12/16 18:46:42;;;;;;;;;;;22.60;43.70;;;;;;6226977;28;20859;-39
2021/12/16 18:49:48;;;;;;;;;;;22.70;43.30;;;;;;6225013;28;19928;-38
2021/12/16 18:56:06;;;;;;;;;;;22.50;43.80;;;;;;6198803;28;20801;-38
2021/12/16 18:59:10;;;;;;;;;;;22.60;43.80;;;;;;6199859;28;19924;-39
2021/12/16 19:02:12;;;;;;;;;;;22.90;44.10;;;;;;6222004;28;19925;-38
2021/12/16 19:05:13;;;;;;;;;;;23.00;44.20;;;;;;6229234;28;19928;-38
2021/12/16 19:08:16;;;;;;;;;;;22.60;44.10;;;;;;6223645;28;20802;-38
2021/12/16 19:11:19;;;;;;;;;;;23.00;44.10;;;;;;6211788;28;19928;-38
2021/12/16 19:14:21;;;;;;;;;;;22.80;44.20;;;;;;6212433;28;19929;-38
2021/12/16 19:17:23;;;;;;;;;;;22.40;43.80;;;;;;6227987;28;19928;-41
2021/12/16 19:20:26;;;;;;;;;;;22.50;44.00;;;;;;6215889;28;20172;-40
2021/12/16 19:23:30;;;;;;;;;;;22.40;44.00;;;;;;6228264;28;19934;-38
2021/12/16 19:26:33;;;;;;;;;;;22.60;44.20;;;;;;6227555;28;20704;-38
2021/12/16 19:29:34;;;;;;;;;;;22.30;44.20;;;;;;6209900;28;19981;-38
2021/12/16 19:32:35;;;;;;;;;;;22.50;44.30;;;;;;6227160;28;19924;-38
2021/12/16 19:35:37;;;;;;;;;;;22.40;44.30;;;;;;6234352;28;19920;-38
2021/12/16 19:38:39;;;;;;;;;;;22.70;44.40;;;;;;6233900;28;20847;-38
2021/12/16 19:41:41;;;;;;;;;;;23.00;44.60;;;;;;6220243;28;20031;-38
2021/12/16 19:44:43;;;;;;;;;;;22.30;44.30;;;;;;6235440;28;23072;-38
2021/12/16 19:47:44;;;;;;;;;;;22.30;44.20;;;;;;6237701;28;19928;-38
2021/12/16 19:50:47;;;;;;;;;;;22.40;44.40;;;;;;6242005;28;20077;-38
2021/12/16 19:53:49;;;;;;;;;;;22.20;44.20;;;;;;6238242;28;20046;-38
2021/12/16 19:56:52;;;;;;;;;;;22.10;44.30;;;;;;6239031;28;20040;-38
2021/12/16 19:59:54;;;;;;;;;;;22.60;44.60;;;;;;6216823;28;20819;-38
2021/12/16 20:02:56;;;;;;;;;;;22.10;44.40;;;;;;6236567;28;19928;-39
2021/12/16 20:05:59;;;;;;;;;;;22.10;44.30;;;;;;6230721;28;19928;-38
2021/12/16 20:09:01;;;;;;;;;;;22.20;44.30;;;;;;6231899;28;19924;-38
2021/12/16 20:12:05;;;;;;;;;;;22.80;44.50;;;;;;6219139;28;20856;-38
2021/12/16 20:15:09;;;;;;;;;;;22.50;44.40;;;;;;6238403;28;19936;-38
2021/12/16 20:18:11;;;;;;;;;;;22.00;44.20;;;;;;6230423;28;20013;-38
2021/12/16 20:21:16;;;;;;;;;;;22.40;45.10;;;;;;6227028;28;19928;-39
2021/12/16 20:24:20;;;;;;;;;;;22.10;44.50;;;;;;6233472;28;19932;-38
2021/12/16 20:27:24;;;;;;;;;;;22.20;44.50;;;;;;6239376;28;20438;-39
2021/12/16 20:30:27;;;;;;;;;;;22.10;44.50;;;;;;6242190;28;20706;-39
2021/12/16 20:33:30;;;;;;;;;;;22.70;44.80;;;;;;6239574;28;19928;-38
2021/12/16 20:36:33;;;;;;;;;;;22.00;44.40;;;;;;6222578;28;19932;-38
2021/12/16 20:39:36;;;;;;;;;;;22.60;44.70;;;;;;6234500;28;19925;-38
2021/12/16 20:42:40;;;;;;;;;;;22.50;44.60;;;;;;6244023;28;20035;-38
2021/12/16 20:45:48;;;;;;;;;;;22.40;44.80;;;;;;6240597;28;20753;-39